createdAt,value
2023-04-09T00:00:08.667Z,52.85
2023-04-09T00:01:08.671Z,55.11
2023-04-09T00:02:08.772Z,57.52
2023-04-09T00:03:08.857Z,58.01
2023-04-09T00:04:08.891Z,57.36
2023-04-09T00:05:08.707Z,53.01
2023-04-09T00:06:08.610Z,54.79
2023-04-09T00:07:08.978Z,53.50
2023-04-09T00:08:08.677Z,52.53
2023-04-09T00:09:08.662Z,56.40
2023-04-09T00:10:09.156Z,56.56
2023-04-09T00:11:08.678Z,49.15
2023-04-09T00:12:08.631Z,56.07
2023-04-09T00:13:08.787Z,53.01
2023-04-09T00:14:08.708Z,53.01
2023-04-09T00:15:13.044Z,60.26
2023-04-09T00:16:10.628Z,53.82
2023-04-09T00:17:08.561Z,54.62
2023-04-09T00:18:08.512Z,51.72
2023-04-09T00:19:08.675Z,55.11
2023-04-09T00:20:08.510Z,55.43
2023-04-09T00:21:08.715Z,55.91
2023-04-09T00:22:08.616Z,51.40
2023-04-09T00:23:09.008Z,58.65
2023-04-09T00:24:08.596Z,57.69
2023-04-09T00:25:08.554Z,58.33
2023-04-09T00:26:08.625Z,57.04
2023-04-09T00:27:08.534Z,49.95
2023-04-09T00:28:08.555Z,54.79
2023-04-09T00:29:08.518Z,55.91
2023-04-09T00:30:08.819Z,49.63
2023-04-09T00:31:08.547Z,49.15
2023-04-09T00:32:08.679Z,50.76
2023-04-09T00:33:08.497Z,49.79
2023-04-09T00:34:08.602Z,52.37
2023-04-09T00:35:08.494Z,57.04
2023-04-09T00:36:08.447Z,51.56
2023-04-09T00:37:08.433Z,56.88
2023-04-09T00:38:09.298Z,54.14
2023-04-09T00:39:08.401Z,53.01
2023-04-09T00:40:08.543Z,56.56
2023-04-09T00:41:08.463Z,54.95
2023-04-09T00:42:08.897Z,53.33
2023-04-09T00:43:08.431Z,55.11
2023-04-09T00:44:08.531Z,55.59
2023-04-09T00:45:08.430Z,52.37
2023-04-09T00:46:08.429Z,52.37
2023-04-09T00:47:08.455Z,54.46
2023-04-09T00:48:08.473Z,54.62
2023-04-09T00:49:08.388Z,52.21
2023-04-09T00:50:08.389Z,50.43
2023-04-09T00:51:08.380Z,55.11
2023-04-09T00:52:08.785Z,53.01
2023-04-09T00:53:08.345Z,50.43
2023-04-09T00:54:08.361Z,51.72
2023-04-09T00:55:08.335Z,54.79
2023-04-09T00:56:08.314Z,53.66
2023-04-09T00:57:08.373Z,56.56
2023-04-09T00:58:08.397Z,53.50
2023-04-09T00:59:08.384Z,58.17
2023-04-09T01:00:08.347Z,57.36
2023-04-09T01:01:08.440Z,60.26
2023-04-09T01:02:08.373Z,56.72
2023-04-09T01:03:08.529Z,55.11
2023-04-09T01:04:08.316Z,57.52
2023-04-09T01:05:08.610Z,51.08
2023-04-09T01:06:08.282Z,54.79
2023-04-09T01:07:08.370Z,55.27
2023-04-09T01:08:08.252Z,52.53
2023-04-09T01:09:08.224Z,53.01
2023-04-09T01:10:08.178Z,55.27
2023-04-09T01:11:08.587Z,54.46
2023-04-09T01:12:08.163Z,57.36
2023-04-09T01:13:08.161Z,55.91
2023-04-09T01:14:08.404Z,56.07
2023-04-09T01:15:08.145Z,57.85
2023-04-09T01:16:08.205Z,54.46
2023-04-09T01:17:08.211Z,56.56
2023-04-09T01:18:08.176Z,51.08
2023-04-09T01:19:31.092Z,57.04
2023-04-09T01:20:09.158Z,52.21
2023-04-09T01:21:08.494Z,52.69
2023-04-09T01:22:25.739Z,49.95
2023-04-09T01:23:08.086Z,49.95
2023-04-09T01:24:08.208Z,53.50
2023-04-09T01:25:08.226Z,55.43
2023-04-09T01:26:28.881Z,55.75
2023-04-09T01:27:09.098Z,53.98
2023-04-09T01:28:08.221Z,55.59
2023-04-09T01:29:08.153Z,51.72
2023-04-09T01:30:16.053Z,55.75
2023-04-09T01:31:08.347Z,50.11
2023-04-09T01:32:08.157Z,49.47
2023-04-09T01:33:08.010Z,50.92
2023-04-09T01:34:29.019Z,55.11
2023-04-09T01:35:28.358Z,49.31
2023-04-09T01:36:09.113Z,48.34
2023-04-09T01:37:07.997Z,50.60
2023-04-09T01:38:08.004Z,53.66
2023-04-09T01:39:12.500Z,48.82
2023-04-09T01:40:07.956Z,50.11
2023-04-09T01:41:07.999Z,65.26
2023-04-09T01:42:07.987Z,54.46
2023-04-09T01:43:07.994Z,55.59
2023-04-09T01:44:07.954Z,48.82
2023-04-09T01:45:07.963Z,53.98
2023-04-09T01:46:07.953Z,49.95
2023-04-09T01:47:11.910Z,50.43
2023-04-09T01:48:11.861Z,48.98
2023-04-09T01:49:07.980Z,52.05
2023-04-09T01:50:07.943Z,53.50
2023-04-09T01:51:34.910Z,53.01
2023-04-09T01:52:08.929Z,51.56
2023-04-09T01:53:07.883Z,53.82
2023-04-09T01:54:07.877Z,50.43
2023-04-09T01:55:07.905Z,50.43
2023-04-09T01:56:07.906Z,50.60
2023-04-09T01:57:07.922Z,50.76
2023-04-09T01:58:07.835Z,55.11
2023-04-09T01:59:26.710Z,52.05
2023-04-09T02:00:07.858Z,54.95
2023-04-09T02:01:41.843Z,52.21
2023-04-09T02:02:07.977Z,51.56
2023-04-09T02:03:08.080Z,52.21
2023-04-09T02:04:09.930Z,53.50
2023-04-09T02:05:07.785Z,50.92
2023-04-09T02:06:22.110Z,52.05
2023-04-09T02:07:07.804Z,59.14
2023-04-09T02:08:07.835Z,51.08
2023-04-09T02:09:07.812Z,52.85
2023-04-09T02:10:28.785Z,57.20
2023-04-09T02:11:07.782Z,53.66
2023-04-09T02:12:07.756Z,56.72
2023-04-09T02:13:07.743Z,51.40
2023-04-09T02:14:07.792Z,54.14
2023-04-09T02:15:07.903Z,55.91
2023-04-09T02:16:07.750Z,58.49
2023-04-09T02:17:07.708Z,59.14
2023-04-09T02:18:07.739Z,56.40
2023-04-09T02:19:08.103Z,56.56
2023-04-09T02:20:07.740Z,51.88
2023-04-09T02:21:07.712Z,51.56
2023-04-09T02:22:07.697Z,51.24
2023-04-09T02:23:07.799Z,56.07
2023-04-09T02:24:07.707Z,53.66
2023-04-09T02:25:07.722Z,51.56
2023-04-09T02:26:07.713Z,52.05
2023-04-09T02:27:07.646Z,56.56
2023-04-09T02:28:07.660Z,56.88
2023-04-09T02:29:24.106Z,52.85
2023-04-09T02:30:08.679Z,51.56
2023-04-09T02:31:07.725Z,52.05
2023-04-09T02:32:31.668Z,51.88
2023-04-09T02:33:54.902Z,55.59
2023-04-09T02:34:08.586Z,51.08
2023-04-09T02:35:07.695Z,56.07
2023-04-09T02:36:07.599Z,55.11
2023-04-09T02:37:20.262Z,55.91
2023-04-09T02:38:26.425Z,58.17
2023-04-09T02:39:07.624Z,54.46
2023-04-09T02:40:07.580Z,52.37
2023-04-09T02:41:07.639Z,51.72
2023-04-09T02:42:07.579Z,54.30
2023-04-09T02:43:07.559Z,53.01
2023-04-09T02:44:18.215Z,56.07
2023-04-09T02:45:07.564Z,57.36
2023-04-09T02:46:07.567Z,52.37
2023-04-09T02:47:07.535Z,55.59
2023-04-09T02:48:16.917Z,54.79
2023-04-09T02:49:21.980Z,52.05
2023-04-09T02:50:08.541Z,51.88
2023-04-09T02:51:07.516Z,53.98
2023-04-09T02:52:07.556Z,55.43
2023-04-09T02:53:38.180Z,56.40
2023-04-09T02:54:08.511Z,56.56
2023-04-09T02:55:07.477Z,52.53
2023-04-09T02:56:32.700Z,56.40
2023-04-09T02:57:08.506Z,51.72
2023-04-09T02:58:07.442Z,51.40
2023-04-09T02:59:07.474Z,51.56
2023-04-09T03:00:07.437Z,56.88
2023-04-09T03:01:07.453Z,55.27
2023-04-09T03:02:07.515Z,54.46
2023-04-09T03:03:07.587Z,56.07
2023-04-09T03:04:07.554Z,54.46
2023-04-09T03:05:07.385Z,60.26
2023-04-09T03:06:07.404Z,56.07
2023-04-09T03:07:07.428Z,58.01
2023-04-09T03:08:07.441Z,56.24
2023-04-09T03:09:07.435Z,55.75
2023-04-09T03:10:07.365Z,51.40
2023-04-09T03:11:21.610Z,53.66
2023-04-09T03:12:07.362Z,58.49
2023-04-09T03:13:07.362Z,55.75
2023-04-09T03:14:07.407Z,57.20
2023-04-09T03:15:07.323Z,57.69
2023-04-09T03:16:09.806Z,53.66
2023-04-09T03:17:07.349Z,52.21
2023-04-09T03:18:07.367Z,60.10
2023-04-09T03:19:41.039Z,57.36
2023-04-09T03:20:22.592Z,56.24
2023-04-09T03:21:07.304Z,52.37
2023-04-09T03:22:31.179Z,57.36
2023-04-09T03:23:08.299Z,52.21
2023-04-09T03:24:07.283Z,56.07
2023-04-09T03:25:20.857Z,57.20
2023-04-09T03:26:07.243Z,58.17
2023-04-09T03:27:07.312Z,56.24
2023-04-09T03:28:07.238Z,57.52
2023-04-09T03:29:25.916Z,57.20
2023-04-09T03:30:08.284Z,53.66
2023-04-09T03:31:07.296Z,57.36
2023-04-09T03:32:07.218Z,56.56
2023-04-09T03:33:07.210Z,57.69
2023-04-09T03:34:07.228Z,56.56
2023-04-09T03:35:07.212Z,60.26
2023-04-09T03:36:07.267Z,57.52
2023-04-09T03:37:07.199Z,57.36
2023-04-09T03:38:07.183Z,56.24
2023-04-09T03:39:07.121Z,57.52
2023-04-09T03:40:07.173Z,53.50
2023-04-09T03:41:07.210Z,57.04
2023-04-09T03:42:07.120Z,54.14
2023-04-09T03:43:07.164Z,57.36
2023-04-09T03:44:07.149Z,57.69
2023-04-09T03:45:07.132Z,59.62
2023-04-09T03:46:07.156Z,58.01
2023-04-09T03:47:07.193Z,55.27
2023-04-09T03:48:07.126Z,55.59
2023-04-09T03:49:07.152Z,54.46
2023-04-09T03:50:07.096Z,57.04
2023-04-09T03:51:07.082Z,56.24
2023-04-09T03:52:07.146Z,56.07
2023-04-09T03:53:07.044Z,58.01
2023-04-09T03:54:07.062Z,57.85
2023-04-09T03:55:07.049Z,56.88
2023-04-09T03:56:07.064Z,57.52
2023-04-09T03:57:07.041Z,59.62
2023-04-09T03:58:07.048Z,58.17
2023-04-09T03:59:07.029Z,61.07
2023-04-09T04:00:07.036Z,60.75
2023-04-09T04:01:07.024Z,62.20
2023-04-09T04:02:07.109Z,61.23
2023-04-09T04:03:07.214Z,59.62
2023-04-09T04:04:07.191Z,61.55
2023-04-09T04:05:07.025Z,61.39
2023-04-09T04:06:06.951Z,61.55
2023-04-09T04:07:06.906Z,62.04
2023-04-09T04:08:06.928Z,57.52
2023-04-09T04:09:06.957Z,57.20
2023-04-09T04:10:06.925Z,58.65
2023-04-09T04:11:06.903Z,57.04
2023-04-09T04:12:06.941Z,60.75
2023-04-09T04:13:06.931Z,61.71
2023-04-09T04:15:06.570Z,62.04
2023-04-09T04:15:07.983Z,60.75
2023-04-09T04:16:06.930Z,60.42
2023-04-09T04:17:06.903Z,58.01
2023-04-09T04:18:06.904Z,61.23
2023-04-09T04:19:06.933Z,61.71
2023-04-09T04:20:07.117Z,62.04
2023-04-09T04:21:06.930Z,63.65
2023-04-09T04:22:06.820Z,68.96
2023-04-09T04:23:06.985Z,68.32
2023-04-09T04:24:19.055Z,69.93
2023-04-09T04:25:18.270Z,68.32
2023-04-09T04:26:06.837Z,71.38
2023-04-09T04:27:06.872Z,71.38
2023-04-09T04:28:21.083Z,70.09
2023-04-09T04:29:06.801Z,69.13
2023-04-09T04:30:06.788Z,68.16
2023-04-09T04:31:06.862Z,69.13
2023-04-09T04:32:06.880Z,69.77
2023-04-09T04:33:06.783Z,70.74
2023-04-09T04:34:26.790Z,70.25
2023-04-09T04:35:24.167Z,68.64
2023-04-09T04:36:16.720Z,70.58
2023-04-09T04:37:14.640Z,67.84
2023-04-09T04:38:06.753Z,66.55
2023-04-09T04:39:06.759Z,68.80
2023-04-09T04:40:06.746Z,70.74
2023-04-09T04:41:06.763Z,70.58
2023-04-09T04:42:06.828Z,73.32
2023-04-09T04:43:06.704Z,66.87
2023-04-09T04:44:06.712Z,66.39
2023-04-09T04:45:06.682Z,66.06
2023-04-09T04:46:06.764Z,66.87
2023-04-09T04:47:06.745Z,67.51
2023-04-09T04:48:06.700Z,66.06
2023-04-09T04:49:06.705Z,68.64
2023-04-09T04:50:06.706Z,68.00
2023-04-09T04:51:06.633Z,68.00
2023-04-09T04:52:06.691Z,68.00
2023-04-09T04:53:06.715Z,67.03
2023-04-09T04:54:06.638Z,67.19
2023-04-09T04:55:06.666Z,64.94
2023-04-09T04:56:20.627Z,71.38
2023-04-09T04:57:07.720Z,65.26
2023-04-09T04:58:11.827Z,64.78
2023-04-09T04:59:06.625Z,57.69
2023-04-09T05:00:06.615Z,62.68
2023-04-09T05:01:06.649Z,60.42
2023-04-09T05:02:06.677Z,62.04
2023-04-09T05:03:06.788Z,65.42
2023-04-09T05:04:06.643Z,63.81
2023-04-09T05:05:06.561Z,61.07
2023-04-09T05:06:06.558Z,63.49
2023-04-09T05:07:06.561Z,63.33
2023-04-09T05:08:06.584Z,65.10
2023-04-09T05:09:06.591Z,63.49
2023-04-09T05:10:06.522Z,61.71
2023-04-09T05:11:06.541Z,60.75
2023-04-09T05:12:06.550Z,62.36
2023-04-09T05:13:06.506Z,65.10
2023-04-09T05:14:06.516Z,63.49
2023-04-09T05:15:06.561Z,62.20
2023-04-09T05:16:06.511Z,61.71
2023-04-09T05:17:06.476Z,63.00
2023-04-09T05:18:22.642Z,63.97
2023-04-09T05:19:06.466Z,60.10
2023-04-09T05:20:06.679Z,61.07
2023-04-09T05:21:22.433Z,63.81
2023-04-09T05:22:07.442Z,60.91
2023-04-09T05:23:06.424Z,63.00
2023-04-09T05:24:06.416Z,63.00
2023-04-09T05:25:06.423Z,65.42
2023-04-09T05:26:06.457Z,61.71
2023-04-09T05:27:06.444Z,65.42
2023-04-09T05:28:06.403Z,64.29
2023-04-09T05:29:06.422Z,66.55
2023-04-09T05:30:29.687Z,60.75
2023-04-09T05:31:07.505Z,65.74
2023-04-09T05:32:06.343Z,63.81
2023-04-09T05:33:28.204Z,64.61
2023-04-09T05:34:07.364Z,62.68
2023-04-09T05:35:06.382Z,63.97
2023-04-09T05:36:06.400Z,65.58
2023-04-09T05:37:06.400Z,68.00
2023-04-09T05:38:06.392Z,62.36
2023-04-09T05:39:06.320Z,64.45
2023-04-09T05:40:06.349Z,66.06
2023-04-09T05:41:06.342Z,67.19
2023-04-09T05:42:06.394Z,66.23
2023-04-09T05:43:06.330Z,64.94
2023-04-09T05:44:06.290Z,59.94
2023-04-09T05:45:06.310Z,61.23
2023-04-09T05:46:06.279Z,61.07
2023-04-09T05:47:06.291Z,63.33
2023-04-09T05:48:06.322Z,64.61
2023-04-09T05:49:06.283Z,61.07
2023-04-09T05:50:06.294Z,60.75
2023-04-09T05:51:06.236Z,59.62
2023-04-09T05:52:06.302Z,58.49
2023-04-09T05:53:06.321Z,61.71
2023-04-09T05:54:06.274Z,66.23
2023-04-09T05:55:06.200Z,67.03
2023-04-09T05:56:06.232Z,65.10
2023-04-09T05:57:06.225Z,61.39
2023-04-09T05:58:06.165Z,57.69
2023-04-09T05:59:06.250Z,62.52
2023-04-09T06:00:06.205Z,62.04
2023-04-09T06:01:07.184Z,67.68
2023-04-09T06:02:06.369Z,62.04
2023-04-09T06:03:06.264Z,57.69
2023-04-09T06:04:06.439Z,60.26
2023-04-09T06:05:06.165Z,61.55
2023-04-09T06:06:06.184Z,62.68
2023-04-09T06:07:06.121Z,63.65
2023-04-09T06:08:06.134Z,67.84
2023-04-09T06:09:06.146Z,67.19
2023-04-09T06:10:06.167Z,68.16
2023-04-09T06:11:06.098Z,59.62
2023-04-09T06:12:06.087Z,61.07
2023-04-09T06:13:06.092Z,68.00
2023-04-09T06:14:06.116Z,64.45
2023-04-09T06:15:06.142Z,65.74
2023-04-09T06:16:06.122Z,69.61
2023-04-09T06:17:06.083Z,65.42
2023-04-09T06:18:06.202Z,66.06
2023-04-09T06:19:06.108Z,63.49
2023-04-09T06:20:06.056Z,60.59
2023-04-09T06:21:06.286Z,60.42
2023-04-09T06:22:06.070Z,62.20
2023-04-09T06:23:06.104Z,61.55
2023-04-09T06:24:06.070Z,62.52
2023-04-09T06:25:06.033Z,64.13
2023-04-09T06:26:06.082Z,63.49
2023-04-09T06:27:06.004Z,60.42
2023-04-09T06:28:05.982Z,59.14
2023-04-09T06:29:06.008Z,60.91
2023-04-09T06:30:05.990Z,72.83
2023-04-09T06:31:05.979Z,73.15
2023-04-09T06:32:06.033Z,73.32
2023-04-09T06:33:05.984Z,63.33
2023-04-09T06:34:05.907Z,64.13
2023-04-09T06:35:05.962Z,62.52
2023-04-09T06:36:06.004Z,67.19
2023-04-09T06:37:05.986Z,68.80
2023-04-09T06:38:05.915Z,62.84
2023-04-09T06:39:05.960Z,63.81
2023-04-09T06:40:05.920Z,58.65
2023-04-09T06:41:05.944Z,58.81
2023-04-09T06:42:05.917Z,57.20
2023-04-09T06:43:05.922Z,58.01
2023-04-09T06:44:05.908Z,59.14
2023-04-09T06:45:05.927Z,58.65
2023-04-09T06:46:05.990Z,59.14
2023-04-09T06:47:05.904Z,58.17
2023-04-09T06:48:05.955Z,56.72
2023-04-09T06:49:05.913Z,57.36
2023-04-09T06:50:05.828Z,58.81
2023-04-09T06:51:05.857Z,61.87
2023-04-09T06:52:05.880Z,61.71
2023-04-09T06:53:05.865Z,62.20
2023-04-09T06:54:05.867Z,68.64
2023-04-09T06:55:05.814Z,62.36
2023-04-09T06:56:05.788Z,60.59
2023-04-09T06:57:05.820Z,61.71
2023-04-09T06:58:05.794Z,61.07
2023-04-09T06:59:05.907Z,60.91
2023-04-09T07:00:05.764Z,58.81
2023-04-09T07:01:05.759Z,61.55
2023-04-09T07:02:05.835Z,60.75
2023-04-09T07:03:05.926Z,63.33
2023-04-09T07:04:05.963Z,62.68
2023-04-09T07:05:05.797Z,61.55
2023-04-09T07:06:05.748Z,60.26
2023-04-09T07:07:05.745Z,61.07
2023-04-09T07:08:06.721Z,64.78
2023-04-09T07:09:05.823Z,64.61
2023-04-09T07:10:05.728Z,61.87
2023-04-09T07:11:05.746Z,62.20
2023-04-09T07:12:05.686Z,60.10
2023-04-09T07:13:05.688Z,59.14
2023-04-09T07:14:05.703Z,63.81
2023-04-09T07:15:05.762Z,64.29
2023-04-09T07:16:05.741Z,60.26
2023-04-09T07:17:05.662Z,63.33
2023-04-09T07:18:05.698Z,63.49
2023-04-09T07:19:05.639Z,61.39
2023-04-09T07:20:05.661Z,60.42
2023-04-09T07:21:05.866Z,62.20
2023-04-09T07:22:05.660Z,60.26
2023-04-09T07:23:05.631Z,61.23
2023-04-09T07:24:05.642Z,61.71
2023-04-09T07:25:05.600Z,61.23
2023-04-09T07:26:05.611Z,61.23
2023-04-09T07:27:05.686Z,59.46
2023-04-09T07:28:05.610Z,58.01
2023-04-09T07:29:05.577Z,59.94
2023-04-09T07:30:05.636Z,58.97
2023-04-09T07:31:05.643Z,58.65
2023-04-09T07:32:05.627Z,60.26
2023-04-09T07:33:05.625Z,58.49
2023-04-09T07:34:05.565Z,60.26
2023-04-09T07:35:05.544Z,62.52
2023-04-09T07:36:05.571Z,60.26
2023-04-09T07:37:05.560Z,58.65
2023-04-09T07:38:05.593Z,59.78
2023-04-09T07:39:05.508Z,62.52
2023-04-09T07:40:05.500Z,63.16
2023-04-09T07:41:05.780Z,61.87
2023-04-09T07:42:05.509Z,62.36
2023-04-09T07:43:05.518Z,62.04
2023-04-09T07:44:05.463Z,58.97
2023-04-09T07:45:05.443Z,58.97
2023-04-09T07:46:05.444Z,57.20
2023-04-09T07:47:05.549Z,58.97
2023-04-09T07:48:05.583Z,62.36
2023-04-09T07:49:05.509Z,61.23
2023-04-09T07:50:05.460Z,63.81
2023-04-09T07:51:05.426Z,62.84
2023-04-09T07:52:05.453Z,62.52
2023-04-09T07:53:05.402Z,73.15
2023-04-09T07:54:05.447Z,59.94
2023-04-09T07:55:05.399Z,58.49
2023-04-09T07:56:05.405Z,59.46
2023-04-09T07:57:05.418Z,59.78
2023-04-09T07:58:05.368Z,57.69
2023-04-09T07:59:05.389Z,73.32
2023-04-09T08:00:05.448Z,63.97
2023-04-09T08:01:05.562Z,61.71
2023-04-09T08:02:05.377Z,59.14
2023-04-09T08:03:05.493Z,65.10
2023-04-09T08:04:05.495Z,67.19
2023-04-09T08:05:05.427Z,71.06
2023-04-09T08:06:05.318Z,60.10
2023-04-09T08:07:05.326Z,59.94
2023-04-09T08:08:05.352Z,61.23
2023-04-09T08:09:05.308Z,56.88
2023-04-09T08:10:05.338Z,57.52
2023-04-09T08:11:05.337Z,60.10
2023-04-09T08:12:05.283Z,58.81
2023-04-09T08:13:10.164Z,62.04
2023-04-09T08:14:06.348Z,61.55
2023-04-09T08:15:05.241Z,55.59
2023-04-09T08:16:05.317Z,56.40
2023-04-09T08:17:05.303Z,56.56
2023-04-09T08:18:05.280Z,58.17
2023-04-09T08:19:05.243Z,62.52
2023-04-09T08:20:05.240Z,62.52
2023-04-09T08:21:05.210Z,60.91
2023-04-09T08:22:05.729Z,62.20
2023-04-09T08:23:05.214Z,59.46
2023-04-09T08:24:05.228Z,63.16
2023-04-09T08:25:05.260Z,70.42
2023-04-09T08:26:05.191Z,62.84
2023-04-09T08:27:05.351Z,65.10
2023-04-09T08:28:05.270Z,63.33
2023-04-09T08:29:05.189Z,68.80
2023-04-09T08:30:05.154Z,68.80
2023-04-09T08:31:05.182Z,61.71
2023-04-09T08:32:05.231Z,54.46
2023-04-09T08:33:05.222Z,57.20
2023-04-09T08:34:05.166Z,60.42
2023-04-09T08:35:05.155Z,68.64
2023-04-09T08:36:05.187Z,66.06
2023-04-09T08:37:05.145Z,60.59
2023-04-09T08:38:05.176Z,61.55
2023-04-09T08:39:05.101Z,58.81
2023-04-09T08:40:05.126Z,60.26
2023-04-09T08:41:05.141Z,58.33
2023-04-09T08:42:05.139Z,60.91
2023-04-09T08:43:05.069Z,60.26
2023-04-09T08:44:05.105Z,66.06
2023-04-09T08:45:05.070Z,65.74
2023-04-09T08:46:05.206Z,64.13
2023-04-09T08:47:05.096Z,61.23
2023-04-09T08:48:05.209Z,62.04
2023-04-09T08:49:05.095Z,61.39
2023-04-09T08:50:05.057Z,59.94
2023-04-09T08:51:05.111Z,56.40
2023-04-09T08:52:05.870Z,61.23
2023-04-09T08:53:07.645Z,57.52
2023-04-09T08:54:06.122Z,59.78
2023-04-09T08:55:05.047Z,62.52
2023-04-09T08:56:04.966Z,62.20
2023-04-09T08:57:05.064Z,62.84
2023-04-09T08:58:04.987Z,61.23
2023-04-09T08:59:04.977Z,62.36
2023-04-09T09:00:05.030Z,61.55
2023-04-09T09:01:04.972Z,61.87
2023-04-09T09:02:05.013Z,57.36
2023-04-09T09:03:05.190Z,57.85
2023-04-09T09:04:04.985Z,58.01
2023-04-09T09:05:04.971Z,59.30
2023-04-09T09:06:04.903Z,57.85
2023-04-09T09:07:04.897Z,58.97
2023-04-09T09:08:04.959Z,57.52
2023-04-09T09:09:04.865Z,60.91
2023-04-09T09:10:04.870Z,57.85
2023-04-09T09:11:04.947Z,56.40
2023-04-09T09:12:04.828Z,58.81
2023-04-09T09:13:04.855Z,60.26
2023-04-09T09:14:04.823Z,61.39
2023-04-09T09:15:04.904Z,59.78
2023-04-09T09:16:04.871Z,58.97
2023-04-09T09:17:04.928Z,64.61
2023-04-09T09:18:04.860Z,57.85
2023-04-09T09:19:04.791Z,60.59
2023-04-09T09:20:04.937Z,59.78
2023-04-09T09:21:04.873Z,66.39
2023-04-09T09:22:04.917Z,57.20
2023-04-09T09:23:04.781Z,66.39
2023-04-09T09:24:04.840Z,70.25
2023-04-09T09:25:05.143Z,58.81
2023-04-09T09:26:04.864Z,60.26
2023-04-09T09:27:04.983Z,57.85
2023-04-09T09:28:04.840Z,58.17
2023-04-09T09:29:04.726Z,69.29
2023-04-09T09:30:04.785Z,68.64
2023-04-09T09:31:04.798Z,56.24
2023-04-09T09:32:04.767Z,60.26
2023-04-09T09:33:04.779Z,67.35
2023-04-09T09:34:04.750Z,62.84
2023-04-09T09:35:04.775Z,64.29
2023-04-09T09:36:04.751Z,61.23
2023-04-09T09:37:05.075Z,59.14
2023-04-09T09:38:04.848Z,60.26
2023-04-09T09:39:05.002Z,61.23
2023-04-09T09:40:04.710Z,61.39
2023-04-09T09:41:05.084Z,60.59
2023-04-09T09:42:04.785Z,60.10
2023-04-09T09:43:05.241Z,59.46
2023-04-09T09:44:04.960Z,59.30
2023-04-09T09:45:05.670Z,59.30
2023-04-09T09:46:04.627Z,60.26
2023-04-09T09:47:04.716Z,60.75
2023-04-09T09:48:04.732Z,57.52
2023-04-09T09:49:04.653Z,58.17
2023-04-09T09:50:04.720Z,58.81
2023-04-09T09:51:04.591Z,60.10
2023-04-09T09:52:04.590Z,59.94
2023-04-09T09:53:04.589Z,62.84
2023-04-09T09:54:04.608Z,59.46
2023-04-09T09:55:04.550Z,58.33
2023-04-09T09:56:04.549Z,61.07
2023-04-09T09:57:04.602Z,60.42
2023-04-09T09:58:04.583Z,61.55
2023-04-09T09:59:04.729Z,59.30
2023-04-09T10:00:05.230Z,58.97
2023-04-09T10:01:04.774Z,61.71
2023-04-09T10:02:04.833Z,64.13
2023-04-09T10:03:04.637Z,62.68
2023-04-09T10:04:04.599Z,59.94
2023-04-09T10:05:04.540Z,57.69
2023-04-09T10:06:04.796Z,57.04
2023-04-09T10:07:04.771Z,63.97
2023-04-09T10:08:04.640Z,67.03
2023-04-09T10:09:04.564Z,63.33
2023-04-09T10:10:04.544Z,68.16
2023-04-09T10:11:04.558Z,56.56
2023-04-09T10:12:04.554Z,57.20
2023-04-09T10:13:04.485Z,57.20
2023-04-09T10:14:04.425Z,69.61
2023-04-09T10:15:04.396Z,69.77
2023-04-09T10:16:04.660Z,70.42
2023-04-09T10:17:04.442Z,59.30
2023-04-09T10:18:04.490Z,65.58
2023-04-09T10:19:04.441Z,63.81
2023-04-09T10:20:04.662Z,64.29
2023-04-09T10:21:04.485Z,60.91
2023-04-09T10:22:04.764Z,71.87
2023-04-09T10:23:04.351Z,73.32
2023-04-09T10:24:04.412Z,59.94
2023-04-09T10:25:04.337Z,61.39
2023-04-09T10:26:04.528Z,62.20
2023-04-09T10:27:04.793Z,59.30
2023-04-09T10:28:04.382Z,61.23
2023-04-09T10:29:04.338Z,59.62
2023-04-09T10:30:04.538Z,62.52
2023-04-09T10:31:04.495Z,70.25
2023-04-09T10:32:04.662Z,62.36
2023-04-09T10:33:04.414Z,61.87
2023-04-09T10:34:04.432Z,62.84
2023-04-09T10:35:04.321Z,59.94
2023-04-09T10:36:04.321Z,56.72
2023-04-09T10:37:04.384Z,57.04
2023-04-09T10:38:04.307Z,58.33
2023-04-09T10:39:04.815Z,56.40
2023-04-09T10:40:04.544Z,59.62
2023-04-09T10:41:04.789Z,58.49
2023-04-09T10:42:04.843Z,60.42
2023-04-09T10:43:05.040Z,58.81
2023-04-09T10:44:04.684Z,58.97
2023-04-09T10:45:04.545Z,59.62
2023-04-09T10:46:04.474Z,58.65
2023-04-09T10:47:17.829Z,59.62
2023-04-09T10:48:05.379Z,59.46
2023-04-09T10:49:04.787Z,63.97
2023-04-09T10:50:04.513Z,56.88
2023-04-09T10:51:05.829Z,75.41
2023-04-09T10:52:04.560Z,61.07
2023-04-09T10:53:04.904Z,66.55
2023-04-09T10:54:04.514Z,82.02
2023-04-09T10:55:04.644Z,58.17
2023-04-09T10:56:04.743Z,60.26
2023-04-09T10:57:04.715Z,66.06
2023-04-09T10:58:04.671Z,63.33
2023-04-09T10:59:04.955Z,74.44
2023-04-09T11:00:04.550Z,77.34
2023-04-09T11:01:04.512Z,80.08
2023-04-09T11:02:04.298Z,61.39
2023-04-09T11:03:04.317Z,59.30
2023-04-09T11:04:04.510Z,70.90
2023-04-09T11:05:04.589Z,73.48
2023-04-09T11:06:04.448Z,82.18
2023-04-09T11:07:04.489Z,82.98
2023-04-09T11:08:04.367Z,76.22
2023-04-09T11:09:04.501Z,61.23
2023-04-09T11:10:05.788Z,59.62
2023-04-09T11:11:04.580Z,73.80
2023-04-09T11:12:04.569Z,86.53
2023-04-09T11:13:05.388Z,87.17
2023-04-09T11:14:04.366Z,59.62
2023-04-09T11:15:04.386Z,73.64
2023-04-09T11:16:04.625Z,77.67
2023-04-09T11:17:04.387Z,59.94
2023-04-09T11:18:04.200Z,73.80
2023-04-09T11:19:04.007Z,69.61
2023-04-09T11:20:04.122Z,62.84
2023-04-09T11:21:04.455Z,64.94
2023-04-09T11:22:04.021Z,60.59
2023-04-09T11:23:04.194Z,65.42
2023-04-09T11:24:04.504Z,59.30
2023-04-09T11:25:04.093Z,61.23
2023-04-09T11:26:04.135Z,60.42
2023-04-09T11:27:04.231Z,60.10
2023-04-09T11:28:04.512Z,59.30
2023-04-09T11:29:04.226Z,62.04
2023-04-09T11:30:04.504Z,61.71
2023-04-09T11:31:04.233Z,61.71
2023-04-09T11:32:04.875Z,60.26
2023-04-09T11:33:04.510Z,60.42
2023-04-09T11:34:04.227Z,59.30
2023-04-09T11:35:04.346Z,59.62
2023-04-09T11:36:04.158Z,61.07
2023-04-09T11:37:03.921Z,60.10
2023-04-09T11:38:03.987Z,61.55
2023-04-09T11:39:04.514Z,61.55
2023-04-09T11:40:04.366Z,61.39
2023-04-09T11:41:04.521Z,60.91
2023-04-09T11:42:04.370Z,59.94
2023-04-09T11:43:04.484Z,59.62
2023-04-09T11:44:04.302Z,59.30
2023-04-09T11:45:04.350Z,59.78
2023-04-09T11:46:04.323Z,58.49
2023-04-09T11:47:04.470Z,58.97
2023-04-09T11:48:04.008Z,59.78
2023-04-09T11:49:04.572Z,58.49
2023-04-09T11:50:04.102Z,56.56
2023-04-09T11:51:03.896Z,58.01
2023-04-09T11:52:03.989Z,58.49
2023-04-09T11:53:04.360Z,58.97
2023-04-09T11:54:04.143Z,57.69
2023-04-09T11:55:04.393Z,61.23
2023-04-09T11:56:04.309Z,60.91
2023-04-09T11:57:04.359Z,58.65
2023-04-09T11:58:04.197Z,57.85
2023-04-09T11:59:04.466Z,56.07
2023-04-09T12:00:05.315Z,56.56
2023-04-09T12:01:05.265Z,59.14
2023-04-09T12:02:04.377Z,59.14
2023-04-09T12:03:04.402Z,57.69
2023-04-09T12:04:04.221Z,58.33
2023-04-09T12:05:04.518Z,58.49
2023-04-09T12:06:04.272Z,57.85
2023-04-09T12:07:04.313Z,57.69
2023-04-09T12:08:04.198Z,55.27
2023-04-09T12:09:04.146Z,55.75
2023-04-09T12:10:04.610Z,57.36
2023-04-09T12:11:04.180Z,55.91
2023-04-09T12:12:04.085Z,62.68
2023-04-09T12:13:05.140Z,60.75
2023-04-09T12:14:04.224Z,69.93
2023-04-09T12:15:04.181Z,58.33
2023-04-09T12:16:04.520Z,54.95
2023-04-09T12:17:03.972Z,55.75
2023-04-09T12:18:04.385Z,59.62
2023-04-09T12:19:04.099Z,57.69
2023-04-09T12:20:04.064Z,53.66
2023-04-09T12:21:04.066Z,53.66
2023-04-09T12:22:04.262Z,56.07
2023-04-09T12:23:03.870Z,58.01
2023-04-09T12:24:03.752Z,57.36
2023-04-09T12:25:03.747Z,57.69
2023-04-09T12:26:03.997Z,61.07
2023-04-09T12:27:04.123Z,65.26
2023-04-09T12:28:03.671Z,60.59
2023-04-09T12:29:03.628Z,57.69
2023-04-09T12:30:04.113Z,59.94
2023-04-09T12:31:04.024Z,57.69
2023-04-09T12:32:04.119Z,57.36
2023-04-09T12:33:04.254Z,58.33
2023-04-09T12:34:04.081Z,58.49
2023-04-09T12:35:04.140Z,59.78
2023-04-09T12:36:04.040Z,58.33
2023-04-09T12:37:03.986Z,59.62
2023-04-09T12:38:04.022Z,56.07
2023-04-09T12:39:03.993Z,56.72
2023-04-09T12:40:04.154Z,59.94
2023-04-09T12:41:03.900Z,59.30
2023-04-09T12:42:03.965Z,57.69
2023-04-09T12:43:04.062Z,58.49
2023-04-09T12:44:03.977Z,62.84
2023-04-09T12:45:04.026Z,59.78
2023-04-09T12:46:04.050Z,58.33
2023-04-09T12:47:03.784Z,71.06
2023-04-09T12:48:04.156Z,56.40
2023-04-09T12:49:04.238Z,55.27
2023-04-09T12:50:03.742Z,71.54
2023-04-09T12:51:03.863Z,57.69
2023-04-09T12:52:03.823Z,58.65